Avery, Iowa
Current Conditions -  °F | °C
As of 5:53 AM on Friday 19 Dec 2014 (Local Time) from KOTM Reporting Station
Overcast Overcast  
Wind Chill: -6°   Ceiling: 2600
Heat Index: -3°   Visibility: 8mi
Dew Point: -5°   Wind: 5mph
Humidity: 85%   Direction: 120°ESE
Pressure: 30.27"   Gusts: NA
Location:  41.0299°N, 92.7795°W
Report Text: KOTM 191153Z AUTO 12004KT 8SM BKN026 OVC050 M03/M05 A3027 RMK AO2 SLP262 70004 T10281050 11028 21033 55002
Loading
Personal Weather Stations






























Interactive Weather Map New forecast layout! Learn more

10-Day Weather Forecast

Advertisements
Track Severe Weather on mobile